sensor_id;sensor_type;location;lat;lon;timestamp;P1;durP1;ratioP1;P2;durP2;ratioP2
49488;SDS011;35382;51.484;11.476;2022-10-16T00:01:32;282.63;;;272.58;;
49488;SDS011;35382;51.484;11.476;2022-10-16T00:03:13;274.80;;;265.10;;
49488;SDS011;35382;51.484;11.476;2022-10-16T00:04:54;272.67;;;263.02;;
49488;SDS011;35382;51.484;11.476;2022-10-16T00:06:35;262.92;;;253.60;;
49488;SDS011;35382;51.484;11.476;2022-10-16T00:08:17;261.30;;;252.13;;
49488;SDS011;35382;51.484;11.476;2022-10-16T00:09:58;253.55;;;244.55;;
49488;SDS011;35382;51.484;11.476;2022-10-16T00:11:39;263.75;;;254.52;;
49488;SDS011;35382;51.484;11.476;2022-10-16T00:13:20;264.30;;;255.00;;
49488;SDS011;35382;51.484;11.476;2022-10-16T00:15:01;264.98;;;255.63;;
49488;SDS011;35382;51.484;11.476;2022-10-16T00:16:43;255.10;;;246.05;;
49488;SDS011;35382;51.484;11.476;2022-10-16T00:18:24;248.68;;;239.90;;
49488;SDS011;35382;51.484;11.476;2022-10-16T00:20:06;247.48;;;238.70;;
49488;SDS011;35382;51.484;11.476;2022-10-16T00:21:47;256.50;;;247.32;;
49488;SDS011;35382;51.484;11.476;2022-10-16T00:23:28;259.08;;;249.88;;
49488;SDS011;35382;51.484;11.476;2022-10-16T00:25:09;262.98;;;253.55;;
49488;SDS011;35382;51.484;11.476;2022-10-16T00:26:50;265.13;;;255.73;;
49488;SDS011;35382;51.484;11.476;2022-10-16T00:28:31;269.13;;;259.50;;
49488;SDS011;35382;51.484;11.476;2022-10-16T00:30:13;269.25;;;259.65;;
49488;SDS011;35382;51.484;11.476;2022-10-16T00:31:54;265.80;;;256.27;;
49488;SDS011;35382;51.484;11.476;2022-10-16T00:33:37;267.55;;;257.83;;
49488;SDS011;35382;51.484;11.476;2022-10-16T00:35:19;264.58;;;255.20;;
49488;SDS011;35382;51.484;11.476;2022-10-16T00:37:01;264.27;;;254.75;;
49488;SDS011;35382;51.484;11.476;2022-10-16T00:38:42;265.70;;;256.13;;
49488;SDS011;35382;51.484;11.476;2022-10-16T00:40:23;270.75;;;260.90;;
49488;SDS011;35382;51.484;11.476;2022-10-16T00:42:04;283.13;;;273.02;;
49488;SDS011;35382;51.484;11.476;2022-10-16T00:43:46;284.35;;;274.17;;
49488;SDS011;35382;51.484;11.476;2022-10-16T00:45:29;272.05;;;262.17;;
49488;SDS011;35382;51.484;11.476;2022-10-16T00:47:11;291.73;;;281.27;;
49488;SDS011;35382;51.484;11.476;2022-10-16T00:50:55;282.35;;;272.30;;
49488;SDS011;35382;51.484;11.476;2022-10-16T00:52:38;278.10;;;268.08;;
49488;SDS011;35382;51.484;11.476;2022-10-16T00:54:30;281.38;;;271.23;;
49488;SDS011;35382;51.484;11.476;2022-10-16T00:56:12;272.88;;;263.17;;
49488;SDS011;35382;51.484;11.476;2022-10-16T00:57:53;277.33;;;267.45;;
49488;SDS011;35382;51.484;11.476;2022-10-16T00:59:36;274.65;;;264.90;;
49488;SDS011;35382;51.484;11.476;2022-10-16T01:01:19;271.65;;;262.00;;
49488;SDS011;35382;51.484;11.476;2022-10-16T01:03:00;278.15;;;268.30;;
49488;SDS011;35382;51.484;11.476;2022-10-16T01:04:44;275.27;;;265.50;;
49488;SDS011;35382;51.484;11.476;2022-10-16T01:08:33;269.25;;;259.73;;
49488;SDS011;35382;51.484;11.476;2022-10-16T01:12:45;264.95;;;255.38;;
49488;SDS011;35382;51.484;11.476;2022-10-16T01:14:46;277.75;;;267.60;;
49488;SDS011;35382;51.484;11.476;2022-10-16T01:22:03;284.40;;;274.05;;
49488;SDS011;35382;51.484;11.476;2022-10-16T01:27:39;286.75;;;276.42;;
49488;SDS011;35382;51.484;11.476;2022-10-16T01:29:36;287.58;;;277.25;;
49488;SDS011;35382;51.484;11.476;2022-10-16T01:31:22;281.67;;;271.55;;
49488;SDS011;35382;51.484;11.476;2022-10-16T01:33:10;281.08;;;270.75;;
49488;SDS011;35382;51.484;11.476;2022-10-16T01:37:09;282.60;;;272.50;;
49488;SDS011;35382;51.484;11.476;2022-10-16T01:38:55;275.42;;;265.60;;
49488;SDS011;35382;51.484;11.476;2022-10-16T01:40:41;285.10;;;274.90;;
49488;SDS011;35382;51.484;11.476;2022-10-16T01:42:30;283.92;;;273.75;;
49488;SDS011;35382;51.484;11.476;2022-10-16T01:44:25;279.50;;;269.45;;
49488;SDS011;35382;51.484;11.476;2022-10-16T01:46:10;286.63;;;276.27;;
49488;SDS011;35382;51.484;11.476;2022-10-16T01:47:53;290.33;;;279.75;;
49488;SDS011;35382;51.484;11.476;2022-10-16T01:49:35;288.73;;;278.35;;
49488;SDS011;35382;51.484;11.476;2022-10-16T01:51:18;286.02;;;275.70;;
49488;SDS011;35382;51.484;11.476;2022-10-16T01:53:01;287.17;;;276.83;;
49488;SDS011;35382;51.484;11.476;2022-10-16T01:54:43;297.13;;;286.45;;
49488;SDS011;35382;51.484;11.476;2022-10-16T01:56:28;294.10;;;283.55;;
49488;SDS011;35382;51.484;11.476;2022-10-16T01:58:10;303.23;;;292.23;;
49488;SDS011;35382;51.484;11.476;2022-10-16T01:59:54;300.38;;;289.60;;
49488;SDS011;35382;51.484;11.476;2022-10-16T02:01:38;308.77;;;297.65;;
49488;SDS011;35382;51.484;11.476;2022-10-16T02:03:22;306.08;;;295.08;;
49488;SDS011;35382;51.484;11.476;2022-10-16T02:07:07;293.23;;;282.40;;
49488;SDS011;35382;51.484;11.476;2022-10-16T02:08:48;295.23;;;284.55;;
49488;SDS011;35382;51.484;11.476;2022-10-16T02:10:29;294.67;;;284.08;;
49488;SDS011;35382;51.484;11.476;2022-10-16T02:12:15;298.38;;;287.67;;
49488;SDS011;35382;51.484;11.476;2022-10-16T02:14:04;284.38;;;274.13;;
49488;SDS011;35382;51.484;11.476;2022-10-16T02:15:47;282.85;;;272.67;;
49488;SDS011;35382;51.484;11.476;2022-10-16T02:17:28;281.15;;;271.02;;
49488;SDS011;35382;51.484;11.476;2022-10-16T02:19:09;292.02;;;281.52;;
49488;SDS011;35382;51.484;11.476;2022-10-16T02:28:59;255.68;;;246.55;;
49488;SDS011;35382;51.484;11.476;2022-10-16T02:30:49;275.35;;;265.55;;
49488;SDS011;35382;51.484;11.476;2022-10-16T02:32:39;278.20;;;268.17;;
49488;SDS011;35382;51.484;11.476;2022-10-16T02:34:23;281.17;;;271.13;;
49488;SDS011;35382;51.484;11.476;2022-10-16T02:36:06;271.83;;;262.10;;
49488;SDS011;35382;51.484;11.476;2022-10-16T02:37:48;274.45;;;264.55;;
49488;SDS011;35382;51.484;11.476;2022-10-16T02:39:30;264.65;;;255.15;;
49488;SDS011;35382;51.484;11.476;2022-10-16T02:41:12;267.95;;;258.23;;
49488;SDS011;35382;51.484;11.476;2022-10-16T02:42:53;282.13;;;271.92;;
49488;SDS011;35382;51.484;11.476;2022-10-16T02:44:35;283.35;;;273.17;;
49488;SDS011;35382;51.484;11.476;2022-10-16T02:46:16;287.80;;;277.45;;
49488;SDS011;35382;51.484;11.476;2022-10-16T02:47:58;281.88;;;271.65;;
49488;SDS011;35382;51.484;11.476;2022-10-16T02:49:39;292.05;;;281.27;;
49488;SDS011;35382;51.484;11.476;2022-10-16T02:51:20;278.48;;;268.48;;
49488;SDS011;35382;51.484;11.476;2022-10-16T02:53:01;276.73;;;266.88;;
49488;SDS011;35382;51.484;11.476;2022-10-16T02:54:42;281.52;;;271.30;;
49488;SDS011;35382;51.484;11.476;2022-10-16T02:56:23;290.27;;;279.75;;
49488;SDS011;35382;51.484;11.476;2022-10-16T02:58:04;272.90;;;262.95;;
49488;SDS011;35382;51.484;11.476;2022-10-16T02:59:45;284.73;;;274.55;;
49488;SDS011;35382;51.484;11.476;2022-10-16T03:01:26;281.13;;;270.88;;
49488;SDS011;35382;51.484;11.476;2022-10-16T03:03:07;278.50;;;268.52;;
49488;SDS011;35382;51.484;11.476;2022-10-16T03:04:48;281.42;;;271.20;;
49488;SDS011;35382;51.484;11.476;2022-10-16T03:06:29;286.83;;;276.48;;
49488;SDS011;35382;51.484;11.476;2022-10-16T03:08:10;289.85;;;279.42;;
49488;SDS011;35382;51.484;11.476;2022-10-16T03:09:51;282.45;;;272.30;;
49488;SDS011;35382;51.484;11.476;2022-10-16T03:11:32;282.48;;;272.20;;
49488;SDS011;35382;51.484;11.476;2022-10-16T03:13:13;294.40;;;283.85;;
49488;SDS011;35382;51.484;11.476;2022-10-16T03:14:54;297.30;;;286.45;;
49488;SDS011;35382;51.484;11.476;2022-10-16T03:16:37;282.45;;;272.33;;
49488;SDS011;35382;51.484;11.476;2022-10-16T03:18:18;281.35;;;271.25;;
49488;SDS011;35382;51.484;11.476;2022-10-16T03:19:58;285.95;;;275.73;;
49488;SDS011;35382;51.484;11.476;2022-10-16T03:21:39;286.75;;;276.50;;
49488;SDS011;35382;51.484;11.476;2022-10-16T03:23:21;284.50;;;274.38;;
49488;SDS011;35382;51.484;11.476;2022-10-16T03:25:02;285.80;;;275.30;;
49488;SDS011;35382;51.484;11.476;2022-10-16T03:26:43;287.45;;;277.02;;
49488;SDS011;35382;51.484;11.476;2022-10-16T03:28:24;284.35;;;274.08;;
49488;SDS011;35382;51.484;11.476;2022-10-16T03:30:05;285.45;;;275.17;;
49488;SDS011;35382;51.484;11.476;2022-10-16T03:31:46;279.90;;;269.90;;
49488;SDS011;35382;51.484;11.476;2022-10-16T03:33:30;277.30;;;267.35;;
49488;SDS011;35382;51.484;11.476;2022-10-16T03:35:17;277.83;;;267.90;;
49488;SDS011;35382;51.484;11.476;2022-10-16T03:36:58;284.20;;;274.02;;
49488;SDS011;35382;51.484;11.476;2022-10-16T03:38:39;272.83;;;263.08;;
49488;SDS011;35382;51.484;11.476;2022-10-16T03:40:20;282.25;;;272.20;;
49488;SDS011;35382;51.484;11.476;2022-10-16T03:42:01;288.42;;;278.08;;
49488;SDS011;35382;51.484;11.476;2022-10-16T03:43:42;282.25;;;272.20;;
49488;SDS011;35382;51.484;11.476;2022-10-16T03:45:23;285.50;;;275.33;;
49488;SDS011;35382;51.484;11.476;2022-10-16T03:47:05;280.48;;;270.42;;
49488;SDS011;35382;51.484;11.476;2022-10-16T03:48:46;282.60;;;272.52;;
49488;SDS011;35382;51.484;11.476;2022-10-16T03:50:27;290.38;;;279.83;;
49488;SDS011;35382;51.484;11.476;2022-10-16T03:52:08;276.52;;;266.52;;
49488;SDS011;35382;51.484;11.476;2022-10-16T03:53:49;282.77;;;272.65;;
49488;SDS011;35382;51.484;11.476;2022-10-16T03:55:30;276.67;;;266.80;;
49488;SDS011;35382;51.484;11.476;2022-10-16T03:57:11;273.77;;;263.95;;
49488;SDS011;35382;51.484;11.476;2022-10-16T03:58:52;281.30;;;271.30;;
49488;SDS011;35382;51.484;11.476;2022-10-16T04:00:33;282.58;;;272.42;;
49488;SDS011;35382;51.484;11.476;2022-10-16T04:02:15;284.25;;;274.08;;
49488;SDS011;35382;51.484;11.476;2022-10-16T04:03:56;289.80;;;279.45;;
49488;SDS011;35382;51.484;11.476;2022-10-16T04:05:36;281.45;;;271.40;;
49488;SDS011;35382;51.484;11.476;2022-10-16T04:07:17;290.08;;;279.67;;
49488;SDS011;35382;51.484;11.476;2022-10-16T04:08:58;279.88;;;269.88;;
49488;SDS011;35382;51.484;11.476;2022-10-16T04:10:39;286.15;;;275.85;;
49488;SDS011;35382;51.484;11.476;2022-10-16T04:12:23;287.30;;;277.00;;
49488;SDS011;35382;51.484;11.476;2022-10-16T04:14:04;283.25;;;273.05;;
49488;SDS011;35382;51.484;11.476;2022-10-16T04:15:45;279.70;;;269.67;;
49488;SDS011;35382;51.484;11.476;2022-10-16T04:17:26;293.83;;;283.23;;
49488;SDS011;35382;51.484;11.476;2022-10-16T04:19:07;291.95;;;281.45;;
49488;SDS011;35382;51.484;11.476;2022-10-16T04:20:48;289.05;;;278.67;;
49488;SDS011;35382;51.484;11.476;2022-10-16T04:22:28;291.40;;;280.88;;
49488;SDS011;35382;51.484;11.476;2022-10-16T04:24:09;303.40;;;292.52;;
49488;SDS011;35382;51.484;11.476;2022-10-16T04:25:51;298.50;;;287.75;;
49488;SDS011;35382;51.484;11.476;2022-10-16T04:27:32;290.85;;;280.33;;
49488;SDS011;35382;51.484;11.476;2022-10-16T04:29:13;290.65;;;280.17;;
49488;SDS011;35382;51.484;11.476;2022-10-16T04:30:54;281.33;;;271.08;;
49488;SDS011;35382;51.484;11.476;2022-10-16T04:32:35;297.20;;;286.45;;
49488;SDS011;35382;51.484;11.476;2022-10-16T04:34:16;295.75;;;285.05;;
49488;SDS011;35382;51.484;11.476;2022-10-16T04:35:58;276.25;;;266.25;;
49488;SDS011;35382;51.484;11.476;2022-10-16T04:37:42;286.55;;;276.20;;
49488;SDS011;35382;51.484;11.476;2022-10-16T04:39:23;286.23;;;275.95;;
49488;SDS011;35382;51.484;11.476;2022-10-16T04:41:04;297.10;;;286.38;;
49488;SDS011;35382;51.484;11.476;2022-10-16T04:42:45;294.55;;;283.95;;
49488;SDS011;35382;51.484;11.476;2022-10-16T04:44:26;292.13;;;281.45;;
49488;SDS011;35382;51.484;11.476;2022-10-16T04:46:07;304.85;;;293.88;;
49488;SDS011;35382;51.484;11.476;2022-10-16T04:47:48;287.50;;;277.15;;
49488;SDS011;35382;51.484;11.476;2022-10-16T04:49:29;292.40;;;281.83;;
49488;SDS011;35382;51.484;11.476;2022-10-16T04:51:10;287.35;;;277.00;;
49488;SDS011;35382;51.484;11.476;2022-10-16T04:52:51;304.55;;;293.58;;
49488;SDS011;35382;51.484;11.476;2022-10-16T04:54:32;294.02;;;283.42;;
49488;SDS011;35382;51.484;11.476;2022-10-16T04:56:13;296.38;;;285.40;;
49488;SDS011;35382;51.484;11.476;2022-10-16T04:57:55;296.63;;;285.35;;
49488;SDS011;35382;51.484;11.476;2022-10-16T04:59:36;308.83;;;297.05;;
49488;SDS011;35382;51.484;11.476;2022-10-16T05:01:17;296.80;;;285.90;;
49488;SDS011;35382;51.484;11.476;2022-10-16T05:02:58;288.42;;;277.77;;
49488;SDS011;35382;51.484;11.476;2022-10-16T05:04:41;289.15;;;278.65;;
49488;SDS011;35382;51.484;11.476;2022-10-16T05:06:22;287.23;;;276.80;;
49488;SDS011;35382;51.484;11.476;2022-10-16T05:08:03;286.38;;;276.02;;
49488;SDS011;35382;51.484;11.476;2022-10-16T05:09:44;284.70;;;274.50;;
49488;SDS011;35382;51.484;11.476;2022-10-16T05:11:25;282.70;;;272.38;;
49488;SDS011;35382;51.484;11.476;2022-10-16T05:13:06;298.65;;;287.85;;
49488;SDS011;35382;51.484;11.476;2022-10-16T05:14:47;294.77;;;284.23;;
49488;SDS011;35382;51.484;11.476;2022-10-16T05:16:28;286.42;;;276.17;;
49488;SDS011;35382;51.484;11.476;2022-10-16T05:18:10;291.17;;;280.58;;
49488;SDS011;35382;51.484;11.476;2022-10-16T05:19:51;285.27;;;275.02;;
49488;SDS011;35382;51.484;11.476;2022-10-16T05:21:32;295.05;;;284.38;;
49488;SDS011;35382;51.484;11.476;2022-10-16T05:23:13;290.90;;;280.50;;
49488;SDS011;35382;51.484;11.476;2022-10-16T05:24:54;288.05;;;277.65;;
49488;SDS011;35382;51.484;11.476;2022-10-16T05:26:35;287.38;;;277.10;;
49488;SDS011;35382;51.484;11.476;2022-10-16T05:28:16;286.45;;;276.15;;
49488;SDS011;35382;51.484;11.476;2022-10-16T05:29:57;278.85;;;268.83;;
49488;SDS011;35382;51.484;11.476;2022-10-16T05:31:38;285.35;;;275.08;;
49488;SDS011;35382;51.484;11.476;2022-10-16T05:33:22;280.02;;;269.98;;
49488;SDS011;35382;51.484;11.476;2022-10-16T05:35:04;281.45;;;271.45;;
49488;SDS011;35382;51.484;11.476;2022-10-16T05:36:45;274.63;;;264.83;;
49488;SDS011;35382;51.484;11.476;2022-10-16T05:38:26;270.27;;;260.52;;
49488;SDS011;35382;51.484;11.476;2022-10-16T05:40:08;273.95;;;264.15;;
49488;SDS011;35382;51.484;11.476;2022-10-16T05:41:50;266.25;;;256.63;;
49488;SDS011;35382;51.484;11.476;2022-10-16T05:43:31;273.15;;;263.42;;
49488;SDS011;35382;51.484;11.476;2022-10-16T05:45:12;274.63;;;264.83;;
49488;SDS011;35382;51.484;11.476;2022-10-16T05:46:53;268.35;;;258.70;;
49488;SDS011;35382;51.484;11.476;2022-10-16T05:48:34;272.27;;;262.48;;
49488;SDS011;35382;51.484;11.476;2022-10-16T05:50:15;261.92;;;252.48;;
49488;SDS011;35382;51.484;11.476;2022-10-16T05:51:56;260.45;;;251.10;;
49488;SDS011;35382;51.484;11.476;2022-10-16T05:53:38;258.95;;;249.68;;
49488;SDS011;35382;51.484;11.476;2022-10-16T05:55:19;255.65;;;246.48;;
49488;SDS011;35382;51.484;11.476;2022-10-16T05:57:00;254.20;;;245.02;;
49488;SDS011;35382;51.484;11.476;2022-10-16T05:58:42;266.52;;;256.95;;
49488;SDS011;35382;51.484;11.476;2022-10-16T06:00:24;268.42;;;258.77;;
49488;SDS011;35382;51.484;11.476;2022-10-16T06:02:05;270.92;;;261.20;;
49488;SDS011;35382;51.484;11.476;2022-10-16T06:03:48;268.33;;;258.75;;
49488;SDS011;35382;51.484;11.476;2022-10-16T06:05:30;264.23;;;254.68;;
49488;SDS011;35382;51.484;11.476;2022-10-16T06:07:11;253.43;;;244.25;;
49488;SDS011;35382;51.484;11.476;2022-10-16T06:08:53;273.50;;;263.70;;
49488;SDS011;35382;51.484;11.476;2022-10-16T06:10:34;261.73;;;252.40;;
49488;SDS011;35382;51.484;11.476;2022-10-16T06:12:16;267.60;;;257.58;;
49488;SDS011;35382;51.484;11.476;2022-10-16T06:13:58;262.73;;;253.13;;
49488;SDS011;35382;51.484;11.476;2022-10-16T06:15:42;268.42;;;258.80;;
49488;SDS011;35382;51.484;11.476;2022-10-16T06:17:23;266.17;;;256.52;;
49488;SDS011;35382;51.484;11.476;2022-10-16T06:19:04;262.08;;;252.65;;
49488;SDS011;35382;51.484;11.476;2022-10-16T06:20:49;268.20;;;258.35;;
49488;SDS011;35382;51.484;11.476;2022-10-16T06:22:30;273.10;;;263.27;;
49488;SDS011;35382;51.484;11.476;2022-10-16T06:24:11;268.27;;;258.55;;
49488;SDS011;35382;51.484;11.476;2022-10-16T06:25:52;280.23;;;270.13;;
49488;SDS011;35382;51.484;11.476;2022-10-16T06:27:33;271.33;;;261.52;;
49488;SDS011;35382;51.484;11.476;2022-10-16T06:29:14;278.42;;;268.40;;
49488;SDS011;35382;51.484;11.476;2022-10-16T06:30:59;273.95;;;264.10;;
49488;SDS011;35382;51.484;11.476;2022-10-16T06:32:40;280.38;;;270.33;;
49488;SDS011;35382;51.484;11.476;2022-10-16T06:34:21;280.73;;;270.52;;
49488;SDS011;35382;51.484;11.476;2022-10-16T06:36:03;280.05;;;269.95;;
49488;SDS011;35382;51.484;11.476;2022-10-16T06:37:54;279.23;;;268.98;;
49488;SDS011;35382;51.484;11.476;2022-10-16T06:39:35;288.15;;;277.73;;
49488;SDS011;35382;51.484;11.476;2022-10-16T06:41:17;278.58;;;268.55;;
49488;SDS011;35382;51.484;11.476;2022-10-16T06:43:00;290.52;;;280.08;;
49488;SDS011;35382;51.484;11.476;2022-10-16T06:44:40;292.52;;;281.95;;
49488;SDS011;35382;51.484;11.476;2022-10-16T06:46:22;292.83;;;282.13;;
49488;SDS011;35382;51.484;11.476;2022-10-16T06:48:04;287.35;;;276.95;;
49488;SDS011;35382;51.484;11.476;2022-10-16T06:49:45;287.13;;;276.85;;
49488;SDS011;35382;51.484;11.476;2022-10-16T06:51:26;285.83;;;275.17;;
49488;SDS011;35382;51.484;11.476;2022-10-16T06:53:07;276.13;;;266.15;;
49488;SDS011;35382;51.484;11.476;2022-10-16T06:54:49;277.23;;;267.27;;
49488;SDS011;35382;51.484;11.476;2022-10-16T06:56:31;273.48;;;263.67;;
49488;SDS011;35382;51.484;11.476;2022-10-16T06:58:12;281.38;;;271.17;;
49488;SDS011;35382;51.484;11.476;2022-10-16T06:59:53;281.05;;;270.50;;
49488;SDS011;35382;51.484;11.476;2022-10-16T07:01:34;277.95;;;267.88;;
49488;SDS011;35382;51.484;11.476;2022-10-16T07:03:15;292.75;;;282.10;;
49488;SDS011;35382;51.484;11.476;2022-10-16T07:04:56;289.02;;;278.63;;
49488;SDS011;35382;51.484;11.476;2022-10-16T07:06:37;277.65;;;267.58;;
49488;SDS011;35382;51.484;11.476;2022-10-16T07:08:18;292.67;;;282.02;;
49488;SDS011;35382;51.484;11.476;2022-10-16T07:09:59;296.13;;;285.50;;
49488;SDS011;35382;51.484;11.476;2022-10-16T07:11:40;285.83;;;275.38;;
49488;SDS011;35382;51.484;11.476;2022-10-16T07:13:21;297.10;;;286.25;;
49488;SDS011;35382;51.484;11.476;2022-10-16T07:15:02;292.92;;;282.38;;
49488;SDS011;35382;51.484;11.476;2022-10-16T07:16:43;287.48;;;277.13;;
49488;SDS011;35382;51.484;11.476;2022-10-16T07:18:24;300.65;;;289.92;;
49488;SDS011;35382;51.484;11.476;2022-10-16T07:20:07;289.83;;;279.45;;
49488;SDS011;35382;51.484;11.476;2022-10-16T07:21:48;293.05;;;282.48;;
49488;SDS011;35382;51.484;11.476;2022-10-16T07:23:29;283.98;;;273.80;;
49488;SDS011;35382;51.484;11.476;2022-10-16T07:25:10;287.45;;;277.00;;
49488;SDS011;35382;51.484;11.476;2022-10-16T07:26:51;294.08;;;283.48;;
49488;SDS011;35382;51.484;11.476;2022-10-16T07:28:32;289.85;;;279.48;;
49488;SDS011;35382;51.484;11.476;2022-10-16T07:30:14;285.65;;;275.40;;
49488;SDS011;35382;51.484;11.476;2022-10-16T07:31:55;295.50;;;284.85;;
49488;SDS011;35382;51.484;11.476;2022-10-16T07:33:36;295.13;;;284.50;;
49488;SDS011;35382;51.484;11.476;2022-10-16T07:35:18;297.15;;;286.38;;
49488;SDS011;35382;51.484;11.476;2022-10-16T07:36:59;309.40;;;298.17;;
49488;SDS011;35382;51.484;11.476;2022-10-16T07:38:40;309.80;;;298.55;;
49488;SDS011;35382;51.484;11.476;2022-10-16T07:40:22;313.02;;;301.48;;
49488;SDS011;35382;51.484;11.476;2022-10-16T07:42:03;317.05;;;305.50;;
49488;SDS011;35382;51.484;11.476;2022-10-16T07:43:45;308.17;;;297.02;;
49488;SDS011;35382;51.484;11.476;2022-10-16T07:45:31;306.80;;;295.70;;
49488;SDS011;35382;51.484;11.476;2022-10-16T07:47:12;319.17;;;307.55;;
49488;SDS011;35382;51.484;11.476;2022-10-16T07:48:53;322.20;;;310.60;;
49488;SDS011;35382;51.484;11.476;2022-10-16T07:50:34;323.52;;;311.88;;
49488;SDS011;35382;51.484;11.476;2022-10-16T07:52:15;329.77;;;317.77;;
49488;SDS011;35382;51.484;11.476;2022-10-16T07:53:56;323.85;;;312.17;;
49488;SDS011;35382;51.484;11.476;2022-10-16T07:55:37;331.73;;;319.67;;
49488;SDS011;35382;51.484;11.476;2022-10-16T07:57:18;330.67;;;318.67;;
49488;SDS011;35382;51.484;11.476;2022-10-16T07:59:00;347.30;;;334.70;;
49488;SDS011;35382;51.484;11.476;2022-10-16T08:00:41;336.10;;;323.88;;
49488;SDS011;35382;51.484;11.476;2022-10-16T08:02:22;337.63;;;325.38;;
49488;SDS011;35382;51.484;11.476;2022-10-16T08:04:03;337.13;;;324.90;;
49488;SDS011;35382;51.484;11.476;2022-10-16T08:05:44;359.38;;;346.30;;
49488;SDS011;35382;51.484;11.476;2022-10-16T08:07:25;350.63;;;337.85;;
49488;SDS011;35382;51.484;11.476;2022-10-16T08:09:06;363.13;;;349.80;;
49488;SDS011;35382;51.484;11.476;2022-10-16T08:10:48;367.55;;;354.05;;
49488;SDS011;35382;51.484;11.476;2022-10-16T08:12:28;367.25;;;353.70;;
49488;SDS011;35382;51.484;11.476;2022-10-16T08:14:09;375.92;;;362.05;;
49488;SDS011;35382;51.484;11.476;2022-10-16T08:15:50;374.55;;;360.90;;
49488;SDS011;35382;51.484;11.476;2022-10-16T08:17:31;368.75;;;355.38;;
49488;SDS011;35382;51.484;11.476;2022-10-16T08:19:12;376.00;;;362.25;;
49488;SDS011;35382;51.484;11.476;2022-10-16T08:20:57;370.38;;;356.88;;
49488;SDS011;35382;51.484;11.476;2022-10-16T08:22:39;358.83;;;345.88;;
49488;SDS011;35382;51.484;11.476;2022-10-16T08:24:21;377.13;;;363.48;;
49488;SDS011;35382;51.484;11.476;2022-10-16T08:26:03;355.92;;;342.80;;
49488;SDS011;35382;51.484;11.476;2022-10-16T08:27:46;352.75;;;339.98;;
49488;SDS011;35382;51.484;11.476;2022-10-16T08:29:27;365.55;;;352.10;;
49488;SDS011;35382;51.484;11.476;2022-10-16T08:31:12;369.00;;;355.50;;
49488;SDS011;35382;51.484;11.476;2022-10-16T08:32:54;356.58;;;343.70;;
49488;SDS011;35382;51.484;11.476;2022-10-16T08:34:36;352.83;;;339.90;;
49488;SDS011;35382;51.484;11.476;2022-10-16T08:36:17;356.38;;;343.48;;
49488;SDS011;35382;51.484;11.476;2022-10-16T08:37:57;371.70;;;358.17;;
49488;SDS011;35382;51.484;11.476;2022-10-16T08:39:38;361.40;;;348.20;;
49488;SDS011;35382;51.484;11.476;2022-10-16T08:41:22;374.30;;;360.67;;
49488;SDS011;35382;51.484;11.476;2022-10-16T08:47:23;331.33;;;319.58;;
49488;SDS011;35382;51.484;11.476;2022-10-16T08:49:13;338.42;;;326.33;;
49488;SDS011;35382;51.484;11.476;2022-10-16T08:50:55;335.67;;;323.63;;
49488;SDS011;35382;51.484;11.476;2022-10-16T08:52:38;335.88;;;323.92;;
49488;SDS011;35382;51.484;11.476;2022-10-16T08:54:41;341.45;;;329.25;;
49488;SDS011;35382;51.484;11.476;2022-10-16T08:56:25;329.67;;;317.88;;
49488;SDS011;35382;51.484;11.476;2022-10-16T08:58:13;332.90;;;320.85;;
49488;SDS011;35382;51.484;11.476;2022-10-16T09:00:00;349.88;;;337.23;;
49488;SDS011;35382;51.484;11.476;2022-10-16T09:01:52;349.95;;;337.23;;
49488;SDS011;35382;51.484;11.476;2022-10-16T09:05:57;312.60;;;301.48;;
49488;SDS011;35382;51.484;11.476;2022-10-16T09:09:34;315.02;;;304.05;;
49488;SDS011;35382;51.484;11.476;2022-10-16T09:19:20;309.92;;;299.05;;
49488;SDS011;35382;51.484;11.476;2022-10-16T09:23:14;321.88;;;310.50;;
49488;SDS011;35382;51.484;11.476;2022-10-16T09:24:59;326.95;;;315.40;;
49488;SDS011;35382;51.484;11.476;2022-10-16T09:26:50;335.92;;;323.95;;
49488;SDS011;35382;51.484;11.476;2022-10-16T09:28:31;342.42;;;330.20;;
49488;SDS011;35382;51.484;11.476;2022-10-16T09:30:13;339.50;;;327.15;;
49488;SDS011;35382;51.484;11.476;2022-10-16T09:31:55;341.48;;;329.25;;
49488;SDS011;35382;51.484;11.476;2022-10-16T09:33:49;332.65;;;320.70;;
49488;SDS011;35382;51.484;11.476;2022-10-16T09:35:40;319.10;;;307.77;;
49488;SDS011;35382;51.484;11.476;2022-10-16T09:37:23;336.63;;;324.60;;
49488;SDS011;35382;51.484;11.476;2022-10-16T09:39:07;311.08;;;300.13;;
49488;SDS011;35382;51.484;11.476;2022-10-16T09:40:49;322.58;;;311.15;;
49488;SDS011;35382;51.484;11.476;2022-10-16T09:42:31;316.98;;;305.70;;
49488;SDS011;35382;51.484;11.476;2022-10-16T09:44:40;320.20;;;308.90;;
49488;SDS011;35382;51.484;11.476;2022-10-16T09:48:17;309.30;;;298.38;;
49488;SDS011;35382;51.484;11.476;2022-10-16T09:50:00;320.58;;;309.35;;
49488;SDS011;35382;51.484;11.476;2022-10-16T09:52:04;306.55;;;295.80;;
49488;SDS011;35382;51.484;11.476;2022-10-16T09:53:46;312.02;;;301.10;;
49488;SDS011;35382;51.484;11.476;2022-10-16T09:55:27;321.80;;;310.35;;
49488;SDS011;35382;51.484;11.476;2022-10-16T09:57:12;329.38;;;317.77;;
49488;SDS011;35382;51.484;11.476;2022-10-16T09:58:55;337.67;;;325.67;;
49488;SDS011;35382;51.484;11.476;2022-10-16T10:00:38;330.02;;;318.35;;
49488;SDS011;35382;51.484;11.476;2022-10-16T10:04:09;336.30;;;324.27;;
49488;SDS011;35382;51.484;11.476;2022-10-16T10:05:51;341.58;;;329.35;;
49488;SDS011;35382;51.484;11.476;2022-10-16T10:07:32;331.45;;;319.58;;
49488;SDS011;35382;51.484;11.476;2022-10-16T10:10:58;353.13;;;340.45;;
49488;SDS011;35382;51.484;11.476;2022-10-16T10:12:39;330.17;;;318.45;;
49488;SDS011;35382;51.484;11.476;2022-10-16T10:14:24;320.42;;;308.98;;
49488;SDS011;35382;51.484;11.476;2022-10-16T10:16:06;333.77;;;321.95;;
49488;SDS011;35382;51.484;11.476;2022-10-16T10:17:49;345.00;;;332.83;;
49488;SDS011;35382;51.484;11.476;2022-10-16T10:21:53;308.65;;;297.77;;
49488;SDS011;35382;51.484;11.476;2022-10-16T10:23:34;329.15;;;317.52;;
49488;SDS011;35382;51.484;11.476;2022-10-16T10:27:13;324.98;;;313.48;;
49488;SDS011;35382;51.484;11.476;2022-10-16T10:32:47;341.98;;;329.70;;
49488;SDS011;35382;51.484;11.476;2022-10-16T10:36:28;337.67;;;325.65;;